sensor_id;sensor_type;location;lat;lon;timestamp;pressure;altitude;pressure_sealevel;temperature;humidity
76229;BME280;65021;53.174;18.160;2024-01-15T00:00:00;98577.85;;;0.78;83.57
76229;BME280;65021;53.174;18.160;2024-01-15T00:02:27;98566.27;;;0.79;83.70
76229;BME280;65021;53.174;18.160;2024-01-15T00:04:54;98558.08;;;0.79;83.70
76229;BME280;65021;53.174;18.160;2024-01-15T00:07:20;98558.00;;;0.79;83.63
76229;BME280;65021;53.174;18.160;2024-01-15T00:09:47;98544.86;;;0.80;83.76
76229;BME280;65021;53.174;18.160;2024-01-15T00:12:13;98546.34;;;0.78;83.55
76229;BME280;65021;53.174;18.160;2024-01-15T00:14:40;98538.77;;;0.73;83.64
76229;BME280;65021;53.174;18.160;2024-01-15T00:17:06;98538.67;;;0.70;83.81
76229;BME280;65021;53.174;18.160;2024-01-15T00:19:33;98537.21;;;0.67;84.02
76229;BME280;65021;53.174;18.160;2024-01-15T00:22:00;98529.30;;;0.65;84.09
76229;BME280;65021;53.174;18.160;2024-01-15T00:24:26;98528.44;;;0.65;84.27
76229;BME280;65021;53.174;18.160;2024-01-15T00:26:53;98525.31;;;0.64;84.29
76229;BME280;65021;53.174;18.160;2024-01-15T00:29:20;98523.52;;;0.62;84.40
76229;BME280;65021;53.174;18.160;2024-01-15T00:31:47;98513.64;;;0.61;84.45
76229;BME280;65021;53.174;18.160;2024-01-15T00:34:13;98514.45;;;0.61;84.60
76229;BME280;65021;53.174;18.160;2024-01-15T00:36:40;98506.63;;;0.59;84.43
76229;BME280;65021;53.174;18.160;2024-01-15T00:39:06;98504.14;;;0.55;84.54
76229;BME280;65021;53.174;18.160;2024-01-15T00:41:33;98498.16;;;0.52;84.55
76229;BME280;65021;53.174;18.160;2024-01-15T00:43:59;98494.44;;;0.50;84.61
76229;BME280;65021;53.174;18.160;2024-01-15T00:46:26;98489.99;;;0.48;84.65
76229;BME280;65021;53.174;18.160;2024-01-15T00:48:53;98489.73;;;0.47;84.65
76229;BME280;65021;53.174;18.160;2024-01-15T00:51:19;98488.88;;;0.47;84.71
76229;BME280;65021;53.174;18.160;2024-01-15T00:53:46;98483.52;;;0.47;84.90
76229;BME280;65021;53.174;18.160;2024-01-15T00:56:13;98476.58;;;0.47;84.74
76229;BME280;65021;53.174;18.160;2024-01-15T00:58:39;98476.33;;;0.47;84.67
76229;BME280;65021;53.174;18.160;2024-01-15T01:01:06;98471.88;;;0.49;84.94
76229;BME280;65021;53.174;18.160;2024-01-15T01:03:32;98462.98;;;0.49;84.97
76229;BME280;65021;53.174;18.160;2024-01-15T01:05:59;98460.49;;;0.49;85.12
76229;BME280;65021;53.174;18.160;2024-01-15T01:08:26;98457.15;;;0.50;84.95
76229;BME280;65021;53.174;18.160;2024-01-15T01:10:52;98451.13;;;0.51;84.98
76229;BME280;65021;53.174;18.160;2024-01-15T01:13:19;98446.88;;;0.52;85.03
76229;BME280;65021;53.174;18.160;2024-01-15T01:15:45;98445.01;;;0.52;84.94
76229;BME280;65021;53.174;18.160;2024-01-15T01:18:12;98437.31;;;0.51;85.03
76229;BME280;65021;53.174;18.160;2024-01-15T01:20:38;98430.98;;;0.49;85.17
76229;BME280;65021;53.174;18.160;2024-01-15T01:23:05;98427.30;;;0.48;84.90
76229;BME280;65021;53.174;18.160;2024-01-15T01:25:31;98421.50;;;0.47;85.03
76229;BME280;65021;53.174;18.160;2024-01-15T01:27:58;98415.95;;;0.47;84.98
76229;BME280;65021;53.174;18.160;2024-01-15T01:30:25;98414.80;;;0.48;85.17
76229;BME280;65021;53.174;18.160;2024-01-15T01:32:54;98417.18;;;0.48;85.10
76229;BME280;65021;53.174;18.160;2024-01-15T01:35:22;98415.83;;;0.49;85.24
76229;BME280;65021;53.174;18.160;2024-01-15T01:37:49;98406.23;;;0.49;84.95
76229;BME280;65021;53.174;18.160;2024-01-15T01:40:16;98401.25;;;0.50;85.23
76229;BME280;65021;53.174;18.160;2024-01-15T01:42:42;98400.84;;;0.51;85.21
76229;BME280;65021;53.174;18.160;2024-01-15T01:45:09;98396.58;;;0.52;85.13
76229;BME280;65021;53.174;18.160;2024-01-15T01:47:36;98395.62;;;0.52;85.16
76229;BME280;65021;53.174;18.160;2024-01-15T01:50:03;98389.83;;;0.53;85.35
76229;BME280;65021;53.174;18.160;2024-01-15T01:52:30;98387.20;;;0.53;85.38
76229;BME280;65021;53.174;18.160;2024-01-15T01:54:58;98382.73;;;0.54;85.31
76229;BME280;65021;53.174;18.160;2024-01-15T01:57:26;98381.27;;;0.55;85.09
76229;BME280;65021;53.174;18.160;2024-01-15T01:59:53;98381.14;;;0.57;85.08
76229;BME280;65021;53.174;18.160;2024-01-15T02:02:20;98372.28;;;0.59;85.12
76229;BME280;65021;53.174;18.160;2024-01-15T02:04:49;98367.56;;;0.60;84.95
76229;BME280;65021;53.174;18.160;2024-01-15T02:07:16;98362.38;;;0.60;84.95
76229;BME280;65021;53.174;18.160;2024-01-15T02:09:47;98360.62;;;0.62;84.76
76229;BME280;65021;53.174;18.160;2024-01-15T02:12:13;98352.94;;;0.61;84.99
76229;BME280;65021;53.174;18.160;2024-01-15T02:14:40;98350.20;;;0.61;84.81
76229;BME280;65021;53.174;18.160;2024-01-15T02:17:06;98344.95;;;0.60;84.93
76229;BME280;65021;53.174;18.160;2024-01-15T02:19:33;98341.34;;;0.60;84.96
76229;BME280;65021;53.174;18.160;2024-01-15T02:22:00;98338.62;;;0.58;84.90
76229;BME280;65021;53.174;18.160;2024-01-15T02:24:26;98342.32;;;0.57;84.81
76229;BME280;65021;53.174;18.160;2024-01-15T02:26:53;98336.00;;;0.57;84.89
76229;BME280;65021;53.174;18.160;2024-01-15T02:29:19;98329.84;;;0.56;84.80
76229;BME280;65021;53.174;18.160;2024-01-15T02:31:46;98322.83;;;0.56;84.98
76229;BME280;65021;53.174;18.160;2024-01-15T02:34:13;98315.52;;;0.56;84.88
76229;BME280;65021;53.174;18.160;2024-01-15T02:36:39;98319.54;;;0.56;84.85
76229;BME280;65021;53.174;18.160;2024-01-15T02:39:06;98313.64;;;0.56;84.85
76229;BME280;65021;53.174;18.160;2024-01-15T02:41:32;98311.27;;;0.56;84.83
76229;BME280;65021;53.174;18.160;2024-01-15T02:43:59;98311.96;;;0.55;84.83
76229;BME280;65021;53.174;18.160;2024-01-15T02:46:26;98308.35;;;0.55;84.81
76229;BME280;65021;53.174;18.160;2024-01-15T02:48:52;98301.89;;;0.54;84.73
76229;BME280;65021;53.174;18.160;2024-01-15T02:51:19;98302.94;;;0.54;84.74
76229;BME280;65021;53.174;18.160;2024-01-15T02:53:45;98300.40;;;0.54;84.61
76229;BME280;65021;53.174;18.160;2024-01-15T02:56:12;98300.52;;;0.54;84.74
76229;BME280;65021;53.174;18.160;2024-01-15T02:58:38;98294.52;;;0.54;84.58
76229;BME280;65021;53.174;18.160;2024-01-15T03:01:05;98289.09;;;0.54;84.57
76229;BME280;65021;53.174;18.160;2024-01-15T03:03:31;98285.83;;;0.55;84.64
76229;BME280;65021;53.174;18.160;2024-01-15T03:06:01;98278.81;;;0.54;84.70
76229;BME280;65021;53.174;18.160;2024-01-15T03:08:28;98273.73;;;0.54;84.58
76229;BME280;65021;53.174;18.160;2024-01-15T03:10:55;98272.41;;;0.54;84.63
76229;BME280;65021;53.174;18.160;2024-01-15T03:13:22;98260.42;;;0.54;84.44
76229;BME280;65021;53.174;18.160;2024-01-15T03:15:48;98255.89;;;0.55;84.55
76229;BME280;65021;53.174;18.160;2024-01-15T03:18:15;98254.22;;;0.54;84.44
76229;BME280;65021;53.174;18.160;2024-01-15T03:20:41;98248.98;;;0.53;84.58
76229;BME280;65021;53.174;18.160;2024-01-15T03:23:08;98248.35;;;0.52;84.56
76229;BME280;65021;53.174;18.160;2024-01-15T03:25:34;98248.93;;;0.50;84.59
76229;BME280;65021;53.174;18.160;2024-01-15T03:28:01;98245.48;;;0.47;84.63
76229;BME280;65021;53.174;18.160;2024-01-15T03:30:27;98238.80;;;0.44;84.59
76229;BME280;65021;53.174;18.160;2024-01-15T03:32:54;98236.63;;;0.40;84.85
76229;BME280;65021;53.174;18.160;2024-01-15T03:35:21;98231.55;;;0.37;84.74
76229;BME280;65021;53.174;18.160;2024-01-15T03:37:48;98226.09;;;0.34;84.79
76229;BME280;65021;53.174;18.160;2024-01-15T03:40:14;98227.02;;;0.31;85.03
76229;BME280;65021;53.174;18.160;2024-01-15T03:42:41;98222.16;;;0.29;84.98
76229;BME280;65021;53.174;18.160;2024-01-15T03:45:08;98221.12;;;0.27;85.00
76229;BME280;65021;53.174;18.160;2024-01-15T03:47:34;98216.38;;;0.26;85.14
76229;BME280;65021;53.174;18.160;2024-01-15T03:50:01;98213.73;;;0.24;85.26
76229;BME280;65021;53.174;18.160;2024-01-15T03:52:27;98212.74;;;0.23;85.36
76229;BME280;65021;53.174;18.160;2024-01-15T03:54:54;98208.60;;;0.21;85.42
76229;BME280;65021;53.174;18.160;2024-01-15T03:57:20;98196.85;;;0.20;85.39
76229;BME280;65021;53.174;18.160;2024-01-15T03:59:47;98203.02;;;0.17;85.61
76229;BME280;65021;53.174;18.160;2024-01-15T04:02:13;98203.27;;;0.16;85.90
76229;BME280;65021;53.174;18.160;2024-01-15T04:04:42;98201.39;;;0.13;85.77
76229;BME280;65021;53.174;18.160;2024-01-15T04:07:09;98195.23;;;0.12;85.68
76229;BME280;65021;53.174;18.160;2024-01-15T04:09:36;98190.04;;;0.10;85.82
76229;BME280;65021;53.174;18.160;2024-01-15T04:12:03;98183.33;;;0.09;85.98
76229;BME280;65021;53.174;18.160;2024-01-15T04:14:29;98181.59;;;0.08;85.92
76229;BME280;65021;53.174;18.160;2024-01-15T04:16:56;98174.48;;;0.08;86.11
76229;BME280;65021;53.174;18.160;2024-01-15T04:19:22;98167.36;;;0.08;86.10
76229;BME280;65021;53.174;18.160;2024-01-15T04:21:49;98174.83;;;0.08;86.20
76229;BME280;65021;53.174;18.160;2024-01-15T04:24:15;98168.27;;;0.08;86.11
76229;BME280;65021;53.174;18.160;2024-01-15T04:26:45;98165.99;;;0.07;86.25
76229;BME280;65021;53.174;18.160;2024-01-15T04:29:11;98166.80;;;0.07;86.17
76229;BME280;65021;53.174;18.160;2024-01-15T04:31:38;98164.04;;;0.06;86.23
76229;BME280;65021;53.174;18.160;2024-01-15T04:34:05;98164.30;;;0.07;86.32
76229;BME280;65021;53.174;18.160;2024-01-15T04:36:31;98164.92;;;0.08;86.30
76229;BME280;65021;53.174;18.160;2024-01-15T04:38:58;98161.22;;;0.07;86.28
76229;BME280;65021;53.174;18.160;2024-01-15T04:41:25;98153.15;;;0.08;86.28
76229;BME280;65021;53.174;18.160;2024-01-15T04:43:51;98145.53;;;0.08;86.17
76229;BME280;65021;53.174;18.160;2024-01-15T04:46:18;98141.82;;;0.07;86.05
76229;BME280;65021;53.174;18.160;2024-01-15T04:48:46;98140.83;;;0.06;85.96
76229;BME280;65021;53.174;18.160;2024-01-15T04:51:13;98139.04;;;0.05;85.79
76229;BME280;65021;53.174;18.160;2024-01-15T04:53:39;98136.95;;;0.04;85.61
76229;BME280;65021;53.174;18.160;2024-01-15T04:56:06;98137.85;;;0.03;85.67
76229;BME280;65021;53.174;18.160;2024-01-15T04:58:32;98135.80;;;0.01;85.62
76229;BME280;65021;53.174;18.160;2024-01-15T05:00:59;98138.31;;;-0.01;85.52
76229;BME280;65021;53.174;18.160;2024-01-15T05:03:25;98142.61;;;-0.01;85.53
76229;BME280;65021;53.174;18.160;2024-01-15T05:05:52;98145.52;;;-0.01;85.33
76229;BME280;65021;53.174;18.160;2024-01-15T05:08:19;98144.98;;;0.00;85.54
76229;BME280;65021;53.174;18.160;2024-01-15T05:10:45;98149.09;;;0.00;85.53
76229;BME280;65021;53.174;18.160;2024-01-15T05:13:12;98152.50;;;0.01;85.56
76229;BME280;65021;53.174;18.160;2024-01-15T05:15:39;98144.11;;;-0.00;85.42
76229;BME280;65021;53.174;18.160;2024-01-15T05:18:06;98144.84;;;-0.02;85.37
76229;BME280;65021;53.174;18.160;2024-01-15T05:20:32;98149.08;;;-0.04;85.39
76229;BME280;65021;53.174;18.160;2024-01-15T05:22:59;98153.21;;;-0.07;85.30
76229;BME280;65021;53.174;18.160;2024-01-15T05:25:25;98159.17;;;-0.08;85.18
76229;BME280;65021;53.174;18.160;2024-01-15T05:27:52;98153.17;;;-0.09;85.12
76229;BME280;65021;53.174;18.160;2024-01-15T05:30:18;98147.98;;;-0.11;84.85
76229;BME280;65021;53.174;18.160;2024-01-15T05:32:45;98152.94;;;-0.13;84.63
76229;BME280;65021;53.174;18.160;2024-01-15T05:35:11;98152.07;;;-0.12;84.56
76229;BME280;65021;53.174;18.160;2024-01-15T05:37:43;98156.70;;;-0.12;84.58
76229;BME280;65021;53.174;18.160;2024-01-15T05:40:10;98158.27;;;-0.12;84.49
76229;BME280;65021;53.174;18.160;2024-01-15T05:42:36;98156.25;;;-0.11;84.39
76229;BME280;65021;53.174;18.160;2024-01-15T05:45:04;98156.91;;;-0.11;84.38
76229;BME280;65021;53.174;18.160;2024-01-15T05:47:31;98153.26;;;-0.10;84.23
76229;BME280;65021;53.174;18.160;2024-01-15T05:49:58;98148.23;;;-0.12;84.37
76229;BME280;65021;53.174;18.160;2024-01-15T05:52:24;98143.95;;;-0.13;84.46
76229;BME280;65021;53.174;18.160;2024-01-15T05:54:51;98140.39;;;-0.13;84.45
76229;BME280;65021;53.174;18.160;2024-01-15T05:57:17;98143.55;;;-0.15;84.28
76229;BME280;65021;53.174;18.160;2024-01-15T05:59:44;98141.11;;;-0.16;84.20
76229;BME280;65021;53.174;18.160;2024-01-15T06:02:11;98138.98;;;-0.16;84.20
76229;BME280;65021;53.174;18.160;2024-01-15T06:04:37;98136.47;;;-0.18;84.21
76229;BME280;65021;53.174;18.160;2024-01-15T06:07:04;98133.96;;;-0.19;84.36
76229;BME280;65021;53.174;18.160;2024-01-15T06:09:30;98137.16;;;-0.20;84.15
76229;BME280;65021;53.174;18.160;2024-01-15T06:11:57;98129.33;;;-0.21;84.29
76229;BME280;65021;53.174;18.160;2024-01-15T06:14:24;98122.79;;;-0.21;84.29
76229;BME280;65021;53.174;18.160;2024-01-15T06:16:52;98126.27;;;-0.22;84.18
76229;BME280;65021;53.174;18.160;2024-01-15T06:19:19;98127.25;;;-0.25;84.11
76229;BME280;65021;53.174;18.160;2024-01-15T06:21:45;98131.09;;;-0.25;84.13
76229;BME280;65021;53.174;18.160;2024-01-15T06:24:12;98128.30;;;-0.26;84.23
76229;BME280;65021;53.174;18.160;2024-01-15T06:26:40;98123.98;;;-0.25;84.26
76229;BME280;65021;53.174;18.160;2024-01-15T06:29:06;98130.53;;;-0.26;84.35
76229;BME280;65021;53.174;18.160;2024-01-15T06:31:33;98124.39;;;-0.26;84.24
76229;BME280;65021;53.174;18.160;2024-01-15T06:33:59;98121.80;;;-0.26;84.36
76229;BME280;65021;53.174;18.160;2024-01-15T06:36:26;98124.70;;;-0.25;84.40
76229;BME280;65021;53.174;18.160;2024-01-15T06:38:52;98120.41;;;-0.23;84.35
76229;BME280;65021;53.174;18.160;2024-01-15T06:41:19;98123.94;;;-0.22;84.32
76229;BME280;65021;53.174;18.160;2024-01-15T06:43:45;98119.39;;;-0.21;84.43
76229;BME280;65021;53.174;18.160;2024-01-15T06:46:12;98117.87;;;-0.20;84.56
76229;BME280;65021;53.174;18.160;2024-01-15T06:48:38;98116.35;;;-0.19;84.54
76229;BME280;65021;53.174;18.160;2024-01-15T06:51:05;98117.34;;;-0.18;84.60
76229;BME280;65021;53.174;18.160;2024-01-15T06:53:31;98118.20;;;-0.17;84.53
76229;BME280;65021;53.174;18.160;2024-01-15T06:55:58;98116.80;;;-0.15;84.37
76229;BME280;65021;53.174;18.160;2024-01-15T06:58:25;98118.18;;;-0.14;84.32
76229;BME280;65021;53.174;18.160;2024-01-15T07:00:51;98111.10;;;-0.13;84.36
76229;BME280;65021;53.174;18.160;2024-01-15T07:03:18;98110.66;;;-0.12;84.20
76229;BME280;65021;53.174;18.160;2024-01-15T07:05:45;98110.07;;;-0.10;84.15
76229;BME280;65021;53.174;18.160;2024-01-15T07:08:11;98102.46;;;-0.09;83.91
76229;BME280;65021;53.174;18.160;2024-01-15T07:10:38;98107.85;;;-0.08;83.90
76229;BME280;65021;53.174;18.160;2024-01-15T07:13:04;98105.18;;;-0.07;84.10
76229;BME280;65021;53.174;18.160;2024-01-15T07:15:32;98104.48;;;-0.06;83.87
76229;BME280;65021;53.174;18.160;2024-01-15T07:17:58;98107.86;;;-0.04;83.94
76229;BME280;65021;53.174;18.160;2024-01-15T07:20:25;98109.34;;;-0.03;83.82
76229;BME280;65021;53.174;18.160;2024-01-15T07:22:51;98108.50;;;-0.02;83.95
76229;BME280;65021;53.174;18.160;2024-01-15T07:25:18;98106.92;;;0.01;83.81
76229;BME280;65021;53.174;18.160;2024-01-15T07:27:44;98103.38;;;0.03;83.66
76229;BME280;65021;53.174;18.160;2024-01-15T07:30:13;98107.30;;;0.04;83.77
76229;BME280;65021;53.174;18.160;2024-01-15T07:32:39;98107.89;;;0.03;83.59
76229;BME280;65021;53.174;18.160;2024-01-15T07:35:07;98107.29;;;0.03;83.95
76229;BME280;65021;53.174;18.160;2024-01-15T07:37:34;98114.86;;;0.04;83.98
76229;BME280;65021;53.174;18.160;2024-01-15T07:40:00;98109.95;;;0.05;83.97
76229;BME280;65021;53.174;18.160;2024-01-15T07:42:27;98111.13;;;0.06;84.07
76229;BME280;65021;53.174;18.160;2024-01-15T07:44:53;98114.45;;;0.07;84.12
76229;BME280;65021;53.174;18.160;2024-01-15T07:47:20;98111.70;;;0.07;84.12
76229;BME280;65021;53.174;18.160;2024-01-15T07:49:47;98110.45;;;0.07;84.13
76229;BME280;65021;53.174;18.160;2024-01-15T07:52:14;98108.05;;;0.11;84.19
76229;BME280;65021;53.174;18.160;2024-01-15T07:54:41;98105.16;;;0.13;84.21
76229;BME280;65021;53.174;18.160;2024-01-15T07:57:07;98101.80;;;0.16;84.18
76229;BME280;65021;53.174;18.160;2024-01-15T07:59:35;98099.73;;;0.19;84.05
76229;BME280;65021;53.174;18.160;2024-01-15T08:02:02;98098.49;;;0.26;83.84
76229;BME280;65021;53.174;18.160;2024-01-15T08:04:29;98097.02;;;0.31;83.67
76229;BME280;65021;53.174;18.160;2024-01-15T08:06:55;98103.30;;;0.34;83.37
76229;BME280;65021;53.174;18.160;2024-01-15T08:09:23;98098.42;;;0.37;83.13
76229;BME280;65021;53.174;18.160;2024-01-15T08:11:50;98098.40;;;0.40;82.98
76229;BME280;65021;53.174;18.160;2024-01-15T08:14:17;98094.44;;;0.45;82.81
76229;BME280;65021;53.174;18.160;2024-01-15T08:16:44;98096.58;;;0.48;82.61
76229;BME280;65021;53.174;18.160;2024-01-15T08:19:11;98095.75;;;0.51;82.28
76229;BME280;65021;53.174;18.160;2024-01-15T08:21:37;98099.77;;;0.50;82.16
76229;BME280;65021;53.174;18.160;2024-01-15T08:24:04;98100.65;;;0.48;82.09
76229;BME280;65021;53.174;18.160;2024-01-15T08:26:31;98100.19;;;0.53;82.09
76229;BME280;65021;53.174;18.160;2024-01-15T08:28:59;98100.69;;;0.63;81.98
76229;BME280;65021;53.174;18.160;2024-01-15T08:31:25;98091.48;;;0.73;81.73
76229;BME280;65021;53.174;18.160;2024-01-15T08:33:52;98090.02;;;0.74;81.42
76229;BME280;65021;53.174;18.160;2024-01-15T08:36:19;98086.30;;;0.80;81.21
76229;BME280;65021;53.174;18.160;2024-01-15T08:38:45;98082.89;;;0.86;81.04
76229;BME280;65021;53.174;18.160;2024-01-15T08:41:12;98088.52;;;0.91;80.85
76229;BME280;65021;53.174;18.160;2024-01-15T08:43:39;98087.89;;;1.01;80.62
76229;BME280;65021;53.174;18.160;2024-01-15T08:46:06;98089.80;;;1.12;80.68
76229;BME280;65021;53.174;18.160;2024-01-15T08:48:33;98085.65;;;1.08;80.38
76229;BME280;65021;53.174;18.160;2024-01-15T08:50:59;98083.63;;;1.03;79.54
76229;BME280;65021;53.174;18.160;2024-01-15T08:53:26;98085.67;;;1.04;79.89
76229;BME280;65021;53.174;18.160;2024-01-15T08:55:53;98089.39;;;1.04;79.77
76229;BME280;65021;53.174;18.160;2024-01-15T08:58:20;98088.17;;;1.07;79.48
76229;BME280;65021;53.174;18.160;2024-01-15T09:00:47;98081.36;;;1.13;79.47
76229;BME280;65021;53.174;18.160;2024-01-15T09:03:13;98081.80;;;1.19;79.43
76229;BME280;65021;53.174;18.160;2024-01-15T09:05:40;98085.21;;;1.18;79.09
76229;BME280;65021;53.174;18.160;2024-01-15T09:08:07;98084.77;;;1.14;78.97
76229;BME280;65021;53.174;18.160;2024-01-15T09:10:34;98081.01;;;1.12;79.23
76229;BME280;65021;53.174;18.160;2024-01-15T09:13:01;98076.25;;;1.10;79.07
76229;BME280;65021;53.174;18.160;2024-01-15T09:15:27;98080.39;;;1.11;79.08
76229;BME280;65021;53.174;18.160;2024-01-15T09:17:54;98068.88;;;1.16;78.99
76229;BME280;65021;53.174;18.160;2024-01-15T09:20:20;98067.94;;;1.12;79.24
76229;BME280;65021;53.174;18.160;2024-01-15T09:22:47;98076.55;;;1.01;79.41
76229;BME280;65021;53.174;18.160;2024-01-15T09:25:13;98067.94;;;0.97;79.79
76229;BME280;65021;53.174;18.160;2024-01-15T09:27:40;98067.64;;;0.93;79.84
76229;BME280;65021;53.174;18.160;2024-01-15T09:30:07;98061.96;;;0.88;79.96
76229;BME280;65021;53.174;18.160;2024-01-15T09:32:34;98058.22;;;0.84;80.01
76229;BME280;65021;53.174;18.160;2024-01-15T09:35:01;98058.20;;;0.82;80.27
76229;BME280;65021;53.174;18.160;2024-01-15T09:37:27;98055.36;;;0.81;80.42
76229;BME280;65021;53.174;18.160;2024-01-15T09:39:54;98049.52;;;0.81;80.50
76229;BME280;65021;53.174;18.160;2024-01-15T09:42:24;98052.73;;;0.85;80.45
76229;BME280;65021;53.174;18.160;2024-01-15T09:44:52;98048.55;;;0.90;80.48
76229;BME280;65021;53.174;18.160;2024-01-15T09:47:19;98048.98;;;0.94;80.38
76229;BME280;65021;53.174;18.160;2024-01-15T09:49:48;98044.95;;;0.98;80.23
76229;BME280;65021;53.174;18.160;2024-01-15T09:52:15;98040.22;;;1.05;80.32
76229;BME280;65021;53.174;18.160;2024-01-15T09:54:46;98041.34;;;1.23;79.81
76229;BME280;65021;53.174;18.160;2024-01-15T09:57:13;98040.34;;;1.33;79.15
76229;BME280;65021;53.174;18.160;2024-01-15T09:59:42;98046.89;;;1.40;78.86
76229;BME280;65021;53.174;18.160;2024-01-15T10:02:12;98044.08;;;1.39;78.49
76229;BME280;65021;53.174;18.160;2024-01-15T10:04:42;98055.14;;;1.34;77.36
76229;BME280;65021;53.174;18.160;2024-01-15T10:07:15;98057.50;;;1.29;77.40
76229;BME280;65021;53.174;18.160;2024-01-15T10:09:44;98050.04;;;1.14;78.45
76229;BME280;65021;53.174;18.160;2024-01-15T10:12:10;98042.50;;;0.97;79.01
76229;BME280;65021;53.174;18.160;2024-01-15T10:14:37;98051.61;;;0.78;79.82
76229;BME280;65021;53.174;18.160;2024-01-15T10:17:14;98055.90;;;0.67;80.62
76229;BME280;65021;53.174;18.160;2024-01-15T10:19:47;98062.35;;;0.60;80.93
76229;BME280;65021;53.174;18.160;2024-01-15T10:22:14;98054.85;;;0.63;81.16
76229;BME280;65021;53.174;18.160;2024-01-15T10:24:42;98058.73;;;0.73;80.64
76229;BME280;65021;53.174;18.160;2024-01-15T10:27:09;98056.95;;;0.96;80.34
76229;BME280;65021;53.174;18.160;2024-01-15T10:29:36;98053.83;;;1.11;79.94
76229;BME280;65021;53.174;18.160;2024-01-15T10:32:06;98060.19;;;1.27;79.23
76229;BME280;65021;53.174;18.160;2024-01-15T10:34:37;98054.15;;;1.49;78.89
76229;BME280;65021;53.174;18.160;2024-01-15T10:37:07;98055.80;;;1.53;77.76
76229;BME280;65021;53.174;18.160;2024-01-15T10:39:34;98055.39;;;1.52;77.77
76229;BME280;65021;53.174;18.160;2024-01-15T10:42:01;98052.88;;;1.49;77.35
76229;BME280;65021;53.174;18.160;2024-01-15T10:44:28;98046.42;;;1.51;76.83
76229;BME280;65021;53.174;18.160;2024-01-15T10:46:56;98048.65;;;1.58;76.71
76229;BME280;65021;53.174;18.160;2024-01-15T10:49:23;98049.85;;;1.65;76.54
76229;BME280;65021;53.174;18.160;2024-01-15T10:51:52;98052.60;;;1.66;75.94
76229;BME280;65021;53.174;18.160;2024-01-15T10:54:20;98052.33;;;1.61;75.81
76229;BME280;65021;53.174;18.160;2024-01-15T10:56:50;98059.33;;;1.58;75.81
76229;BME280;65021;53.174;18.160;2024-01-15T10:59:20;98054.89;;;1.55;76.24
76229;BME280;65021;53.174;18.160;2024-01-15T11:01:48;98052.21;;;1.59;76.36
76229;BME280;65021;53.174;18.160;2024-01-15T11:04:15;98045.96;;;1.73;76.83
76229;BME280;65021;53.174;18.160;2024-01-15T11:06:46;98046.11;;;1.75;76.98
76229;BME280;65021;53.174;18.160;2024-01-15T11:09:13;98048.75;;;1.70;76.34
76229;BME280;65021;53.174;18.160;2024-01-15T11:11:46;98044.59;;;1.71;76.66
76229;BME280;65021;53.174;18.160;2024-01-15T11:14:40;98056.13;;;1.72;76.95
76229;BME280;65021;53.174;18.160;2024-01-15T11:17:07;98046.14;;;1.66;76.39
76229;BME280;65021;53.174;18.160;2024-01-15T11:24:55;98052.73;;;1.14;78.88
76229;BME280;65021;53.174;18.160;2024-01-15T11:27:41;98055.03;;;0.99;79.77
76229;BME280;65021;53.174;18.160;2024-01-15T11:30:12;98048.31;;;0.91;80.37
76229;BME280;65021;53.174;18.160;2024-01-15T11:32:39;98048.40;;;0.83;80.70
76229;BME280;65021;53.174;18.160;2024-01-15T11:35:10;98046.96;;;0.75;80.98
76229;BME280;65021;53.174;18.160;2024-01-15T11:42:59;98049.92;;;0.75;81.58
76229;BME280;65021;53.174;18.160;2024-01-15T11:45:26;98047.52;;;0.80;81.42
76229;BME280;65021;53.174;18.160;2024-01-15T11:50:31;98044.26;;;0.94;81.21
76229;BME280;65021;53.174;18.160;2024-01-15T11:53:01;98046.12;;;0.90;80.86
76229;BME280;65021;53.174;18.160;2024-01-15T11:55:36;98031.64;;;0.91;80.67
76229;BME280;65021;53.174;18.160;2024-01-15T11:58:08;98027.23;;;1.01;80.47
76229;BME280;65021;53.174;18.160;2024-01-15T12:01:03;98029.11;;;1.09;79.89
76229;BME280;65021;53.174;18.160;2024-01-15T12:03:32;98029.05;;;1.17;79.43
76229;BME280;65021;53.174;18.160;2024-01-15T12:06:00;98040.00;;;1.19;78.98
76229;BME280;65021;53.174;18.160;2024-01-15T12:08:27;98044.70;;;1.14;78.13
76229;BME280;65021;53.174;18.160;2024-01-15T12:10:53;98041.54;;;1.05;77.45
76229;BME280;65021;53.174;18.160;2024-01-15T12:13:20;98058.64;;;1.01;77.05
76229;BME280;65021;53.174;18.160;2024-01-15T12:15:48;98068.70;;;0.91;77.47
76229;BME280;65021;53.174;18.160;2024-01-15T12:18:16;98074.05;;;0.68;76.98
76229;BME280;65021;53.174;18.160;2024-01-15T12:20:44;98073.89;;;0.44;77.09
76229;BME280;65021;53.174;18.160;2024-01-15T12:23:13;98075.41;;;0.37;77.04
76229;BME280;65021;53.174;18.160;2024-01-15T12:25:40;98068.27;;;0.46;76.52
76229;BME280;65021;53.174;18.160;2024-01-15T12:28:07;98067.88;;;0.59;75.82
76229;BME280;65021;53.174;18.160;2024-01-15T12:30:34;98065.40;;;0.60;75.23
76229;BME280;65021;53.174;18.160;2024-01-15T12:33:03;98063.73;;;0.56;74.97
76229;BME280;65021;53.174;18.160;2024-01-15T12:35:30;98059.00;;;0.55;74.63
76229;BME280;65021;53.174;18.160;2024-01-15T12:37:56;98066.17;;;0.61;74.85
76229;BME280;65021;53.174;18.160;2024-01-15T12:40:23;98067.05;;;0.70;75.24
76229;BME280;65021;53.174;18.160;2024-01-15T12:42:50;98070.79;;;0.78;74.94
76229;BME280;65021;53.174;18.160;2024-01-15T12:45:17;98072.14;;;0.89;75.03
76229;BME280;65021;53.174;18.160;2024-01-15T12:47:44;98070.51;;;0.95;73.84
76229;BME280;65021;53.174;18.160;2024-01-15T12:50:11;98066.42;;;0.99;73.10
76229;BME280;65021;53.174;18.160;2024-01-15T12:52:41;98074.09;;;1.05;73.42
76229;BME280;65021;53.174;18.160;2024-01-15T12:55:09;98071.80;;;1.12;73.52
76229;BME280;65021;53.174;18.160;2024-01-15T12:57:36;98073.00;;;1.26;73.38
76229;BME280;65021;53.174;18.160;2024-01-15T13:00:04;98078.30;;;1.36;72.70
76229;BME280;65021;53.174;18.160;2024-01-15T13:02:42;98076.61;;;1.42;71.86
76229;BME280;65021;53.174;18.160;2024-01-15T13:05:09;98082.09;;;1.50;72.09
76229;BME280;65021;53.174;18.160;2024-01-15T13:07:39;98079.48;;;1.54;71.96
76229;BME280;65021;53.174;18.160;2024-01-15T13:10:06;98074.22;;;1.52;72.11